sensor_id;sensor_type;location;lat;lon;timestamp;temperature;humidity
16700;DHT22;8466;52.286;21.124;2022-07-29T00:01:47;13.60;99.90
16700;DHT22;8466;52.286;21.124;2022-07-29T00:04:17;13.50;99.90
16700;DHT22;8466;52.286;21.124;2022-07-29T00:06:47;13.60;99.90
16700;DHT22;8466;52.286;21.124;2022-07-29T00:09:16;13.60;99.90
16700;DHT22;8466;52.286;21.124;2022-07-29T00:11:45;13.50;99.90
16700;DHT22;8466;52.286;21.124;2022-07-29T00:14:14;13.50;99.90
16700;DHT22;8466;52.286;21.124;2022-07-29T00:16:43;13.50;99.90
16700;DHT22;8466;52.286;21.124;2022-07-29T00:19:12;13.50;99.90
16700;DHT22;8466;52.286;21.124;2022-07-29T00:21:42;13.50;99.90
16700;DHT22;8466;52.286;21.124;2022-07-29T00:24:11;13.50;99.90
16700;DHT22;8466;52.286;21.124;2022-07-29T00:26:40;13.50;99.90
16700;DHT22;8466;52.286;21.124;2022-07-29T00:29:09;13.50;99.90
16700;DHT22;8466;52.286;21.124;2022-07-29T00:31:57;13.50;99.90
16700;DHT22;8466;52.286;21.124;2022-07-29T00:34:26;13.50;99.90
16700;DHT22;8466;52.286;21.124;2022-07-29T00:37:14;13.40;99.90
16700;DHT22;8466;52.286;21.124;2022-07-29T00:39:43;13.40;99.90
16700;DHT22;8466;52.286;21.124;2022-07-29T00:42:12;13.40;99.90
16700;DHT22;8466;52.286;21.124;2022-07-29T00:44:41;13.40;99.90
16700;DHT22;8466;52.286;21.124;2022-07-29T00:47:11;13.30;99.90
16700;DHT22;8466;52.286;21.124;2022-07-29T00:49:41;13.30;99.90
16700;DHT22;8466;52.286;21.124;2022-07-29T00:52:11;13.40;99.90
16700;DHT22;8466;52.286;21.124;2022-07-29T00:54:44;13.40;99.90
16700;DHT22;8466;52.286;21.124;2022-07-29T00:57:13;13.40;99.90
16700;DHT22;8466;52.286;21.124;2022-07-29T00:59:42;13.50;99.90
16700;DHT22;8466;52.286;21.124;2022-07-29T01:02:11;13.50;99.90
16700;DHT22;8466;52.286;21.124;2022-07-29T01:04:42;13.40;99.90
16700;DHT22;8466;52.286;21.124;2022-07-29T01:07:11;13.40;99.90
16700;DHT22;8466;52.286;21.124;2022-07-29T01:09:41;13.40;99.90
16700;DHT22;8466;52.286;21.124;2022-07-29T01:12:17;13.40;99.90
16700;DHT22;8466;52.286;21.124;2022-07-29T01:14:47;13.30;99.90
16700;DHT22;8466;52.286;21.124;2022-07-29T01:17:21;13.30;99.90
16700;DHT22;8466;52.286;21.124;2022-07-29T01:19:56;13.30;99.90
16700;DHT22;8466;52.286;21.124;2022-07-29T01:22:37;13.20;99.90
16700;DHT22;8466;52.286;21.124;2022-07-29T01:25:31;13.20;99.90
16700;DHT22;8466;52.286;21.124;2022-07-29T01:30:56;13.10;99.90
16700;DHT22;8466;52.286;21.124;2022-07-29T01:33:25;13.00;99.90
16700;DHT22;8466;52.286;21.124;2022-07-29T01:36:16;13.10;99.90
16700;DHT22;8466;52.286;21.124;2022-07-29T01:38:53;13.00;99.90
16700;DHT22;8466;52.286;21.124;2022-07-29T01:41:23;13.00;99.90
16700;DHT22;8466;52.286;21.124;2022-07-29T01:43:57;12.90;99.90
16700;DHT22;8466;52.286;21.124;2022-07-29T01:46:34;12.90;99.90
16700;DHT22;8466;52.286;21.124;2022-07-29T01:49:08;12.90;99.90
16700;DHT22;8466;52.286;21.124;2022-07-29T01:51:43;12.90;99.90
16700;DHT22;8466;52.286;21.124;2022-07-29T01:54:16;12.90;99.90
16700;DHT22;8466;52.286;21.124;2022-07-29T01:56:49;12.80;99.90
16700;DHT22;8466;52.286;21.124;2022-07-29T01:59:20;12.80;99.90
16700;DHT22;8466;52.286;21.124;2022-07-29T02:01:54;12.70;99.90
16700;DHT22;8466;52.286;21.124;2022-07-29T02:04:25;12.60;99.90
16700;DHT22;8466;52.286;21.124;2022-07-29T02:07:02;12.60;99.90
16700;DHT22;8466;52.286;21.124;2022-07-29T02:09:34;12.60;99.90
16700;DHT22;8466;52.286;21.124;2022-07-29T02:12:04;12.60;99.90
16700;DHT22;8466;52.286;21.124;2022-07-29T02:14:42;12.50;99.90
16700;DHT22;8466;52.286;21.124;2022-07-29T02:17:22;12.50;99.90
16700;DHT22;8466;52.286;21.124;2022-07-29T02:19:53;12.40;99.90
16700;DHT22;8466;52.286;21.124;2022-07-29T02:22:25;12.40;99.90
16700;DHT22;8466;52.286;21.124;2022-07-29T02:24:55;12.40;99.90
16700;DHT22;8466;52.286;21.124;2022-07-29T02:27:27;12.50;99.90
16700;DHT22;8466;52.286;21.124;2022-07-29T02:29:58;12.50;99.90
16700;DHT22;8466;52.286;21.124;2022-07-29T02:32:31;12.50;99.90
16700;DHT22;8466;52.286;21.124;2022-07-29T02:35:03;12.50;99.90
16700;DHT22;8466;52.286;21.124;2022-07-29T02:37:33;12.50;99.90
16700;DHT22;8466;52.286;21.124;2022-07-29T02:40:04;12.50;99.90
16700;DHT22;8466;52.286;21.124;2022-07-29T02:42:36;12.50;99.90
16700;DHT22;8466;52.286;21.124;2022-07-29T02:45:07;12.50;99.90
16700;DHT22;8466;52.286;21.124;2022-07-29T02:47:42;12.50;99.90
16700;DHT22;8466;52.286;21.124;2022-07-29T02:50:14;12.40;99.90
16700;DHT22;8466;52.286;21.124;2022-07-29T02:52:45;12.40;99.90
16700;DHT22;8466;52.286;21.124;2022-07-29T02:55:22;12.40;99.90
16700;DHT22;8466;52.286;21.124;2022-07-29T02:57:57;12.40;99.90
16700;DHT22;8466;52.286;21.124;2022-07-29T03:00:29;12.40;99.90
16700;DHT22;8466;52.286;21.124;2022-07-29T03:03:04;12.40;99.90
16700;DHT22;8466;52.286;21.124;2022-07-29T03:05:35;12.40;99.90
16700;DHT22;8466;52.286;21.124;2022-07-29T03:08:07;12.40;99.90
16700;DHT22;8466;52.286;21.124;2022-07-29T03:10:37;12.30;99.90
16700;DHT22;8466;52.286;21.124;2022-07-29T03:13:08;12.40;99.90
16700;DHT22;8466;52.286;21.124;2022-07-29T03:15:37;12.40;99.90
16700;DHT22;8466;52.286;21.124;2022-07-29T03:18:08;12.50;99.90
16700;DHT22;8466;52.286;21.124;2022-07-29T03:20:37;12.50;99.90
16700;DHT22;8466;52.286;21.124;2022-07-29T03:23:08;12.50;99.90
16700;DHT22;8466;52.286;21.124;2022-07-29T03:25:37;12.50;99.90
16700;DHT22;8466;52.286;21.124;2022-07-29T03:28:06;12.60;99.90
16700;DHT22;8466;52.286;21.124;2022-07-29T03:30:35;12.60;99.90
16700;DHT22;8466;52.286;21.124;2022-07-29T03:33:04;12.70;99.90
16700;DHT22;8466;52.286;21.124;2022-07-29T03:35:41;12.70;99.90
16700;DHT22;8466;52.286;21.124;2022-07-29T03:38:10;12.70;99.90
16700;DHT22;8466;52.286;21.124;2022-07-29T03:40:43;12.80;99.90
16700;DHT22;8466;52.286;21.124;2022-07-29T03:43:14;12.90;99.90
16700;DHT22;8466;52.286;21.124;2022-07-29T03:45:47;12.90;99.90
16700;DHT22;8466;52.286;21.124;2022-07-29T03:48:20;12.90;99.90
16700;DHT22;8466;52.286;21.124;2022-07-29T03:50:52;13.00;99.90
16700;DHT22;8466;52.286;21.124;2022-07-29T03:53:21;13.10;99.90
16700;DHT22;8466;52.286;21.124;2022-07-29T03:55:53;13.20;99.90
16700;DHT22;8466;52.286;21.124;2022-07-29T03:58:23;13.20;99.90
16700;DHT22;8466;52.286;21.124;2022-07-29T04:00:54;13.30;99.90
16700;DHT22;8466;52.286;21.124;2022-07-29T04:03:23;13.50;99.90
16700;DHT22;8466;52.286;21.124;2022-07-29T04:06:05;13.60;99.90
16700;DHT22;8466;52.286;21.124;2022-07-29T04:08:35;13.90;99.90
16700;DHT22;8466;52.286;21.124;2022-07-29T04:11:04;14.50;99.90
16700;DHT22;8466;52.286;21.124;2022-07-29T04:13:34;15.90;99.90
16700;DHT22;8466;52.286;21.124;2022-07-29T04:16:03;17.90;99.90
16700;DHT22;8466;52.286;21.124;2022-07-29T04:18:32;19.50;99.90
16700;DHT22;8466;52.286;21.124;2022-07-29T04:21:04;21.00;99.90
16700;DHT22;8466;52.286;21.124;2022-07-29T04:23:33;22.10;99.90
16700;DHT22;8466;52.286;21.124;2022-07-29T04:26:19;23.10;99.90
16700;DHT22;8466;52.286;21.124;2022-07-29T04:28:48;24.10;99.90
16700;DHT22;8466;52.286;21.124;2022-07-29T04:31:17;24.60;97.90
16700;DHT22;8466;52.286;21.124;2022-07-29T04:33:51;24.90;96.40
16700;DHT22;8466;52.286;21.124;2022-07-29T04:36:22;25.00;95.60
16700;DHT22;8466;52.286;21.124;2022-07-29T04:38:55;25.00;94.90
16700;DHT22;8466;52.286;21.124;2022-07-29T04:41:24;24.20;95.50
16700;DHT22;8466;52.286;21.124;2022-07-29T04:43:59;23.50;97.20
16700;DHT22;8466;52.286;21.124;2022-07-29T04:46:33;23.10;97.80
16700;DHT22;8466;52.286;21.124;2022-07-29T04:49:03;22.50;99.00
16700;DHT22;8466;52.286;21.124;2022-07-29T04:51:34;21.80;99.90
16700;DHT22;8466;52.286;21.124;2022-07-29T04:54:03;20.70;99.90
16700;DHT22;8466;52.286;21.124;2022-07-29T04:56:32;19.40;99.90
16700;DHT22;8466;52.286;21.124;2022-07-29T04:59:01;18.40;99.90
16700;DHT22;8466;52.286;21.124;2022-07-29T05:01:30;17.80;99.90
16700;DHT22;8466;52.286;21.124;2022-07-29T05:04:02;17.50;99.90
16700;DHT22;8466;52.286;21.124;2022-07-29T05:06:40;17.40;99.90
16700;DHT22;8466;52.286;21.124;2022-07-29T05:09:09;17.50;99.90
16700;DHT22;8466;52.286;21.124;2022-07-29T05:11:42;17.40;99.90
16700;DHT22;8466;52.286;21.124;2022-07-29T05:14:15;17.20;99.90
16700;DHT22;8466;52.286;21.124;2022-07-29T05:16:44;17.00;99.90
16700;DHT22;8466;52.286;21.124;2022-07-29T05:19:13;16.80;99.90
16700;DHT22;8466;52.286;21.124;2022-07-29T05:21:44;16.80;99.90
16700;DHT22;8466;52.286;21.124;2022-07-29T05:24:13;16.80;99.90
16700;DHT22;8466;52.286;21.124;2022-07-29T05:26:44;16.80;99.90
16700;DHT22;8466;52.286;21.124;2022-07-29T05:29:13;16.70;99.90
16700;DHT22;8466;52.286;21.124;2022-07-29T05:32:02;16.70;99.90
16700;DHT22;8466;52.286;21.124;2022-07-29T05:34:32;16.70;99.90
16700;DHT22;8466;52.286;21.124;2022-07-29T05:37:04;16.80;99.90
16700;DHT22;8466;52.286;21.124;2022-07-29T05:39:33;16.70;99.90
16700;DHT22;8466;52.286;21.124;2022-07-29T05:42:17;16.80;99.90
16700;DHT22;8466;52.286;21.124;2022-07-29T05:44:47;16.80;99.90
16700;DHT22;8466;52.286;21.124;2022-07-29T05:47:16;16.90;99.90
16700;DHT22;8466;52.286;21.124;2022-07-29T05:49:44;16.90;99.90
16700;DHT22;8466;52.286;21.124;2022-07-29T05:52:15;17.00;99.90
16700;DHT22;8466;52.286;21.124;2022-07-29T05:54:43;17.10;99.90
16700;DHT22;8466;52.286;21.124;2022-07-29T05:57:16;17.10;99.90
16700;DHT22;8466;52.286;21.124;2022-07-29T05:59:45;17.20;99.90
16700;DHT22;8466;52.286;21.124;2022-07-29T06:02:14;17.20;99.90
16700;DHT22;8466;52.286;21.124;2022-07-29T06:04:44;17.20;99.90
16700;DHT22;8466;52.286;21.124;2022-07-29T06:07:14;17.40;99.90
16700;DHT22;8466;52.286;21.124;2022-07-29T06:09:44;17.30;99.90
16700;DHT22;8466;52.286;21.124;2022-07-29T06:12:12;17.30;99.90
16700;DHT22;8466;52.286;21.124;2022-07-29T06:14:41;17.40;99.90
16700;DHT22;8466;52.286;21.124;2022-07-29T06:17:10;17.50;99.90
16700;DHT22;8466;52.286;21.124;2022-07-29T06:19:39;17.50;99.90
16700;DHT22;8466;52.286;21.124;2022-07-29T06:22:08;17.50;99.90
16700;DHT22;8466;52.286;21.124;2022-07-29T06:24:39;17.60;99.90
16700;DHT22;8466;52.286;21.124;2022-07-29T06:27:11;17.60;99.90
16700;DHT22;8466;52.286;21.124;2022-07-29T06:29:39;17.60;99.90
16700;DHT22;8466;52.286;21.124;2022-07-29T06:32:08;17.70;99.90
16700;DHT22;8466;52.286;21.124;2022-07-29T06:34:37;17.80;99.90
16700;DHT22;8466;52.286;21.124;2022-07-29T06:37:09;17.90;99.90
16700;DHT22;8466;52.286;21.124;2022-07-29T06:39:43;18.00;99.90
16700;DHT22;8466;52.286;21.124;2022-07-29T06:42:11;18.00;99.90
16700;DHT22;8466;52.286;21.124;2022-07-29T06:44:40;18.00;99.90
16700;DHT22;8466;52.286;21.124;2022-07-29T06:47:09;18.00;99.90
16700;DHT22;8466;52.286;21.124;2022-07-29T06:49:39;18.10;99.90
16700;DHT22;8466;52.286;21.124;2022-07-29T06:52:07;18.10;99.90
16700;DHT22;8466;52.286;21.124;2022-07-29T06:54:36;18.20;99.90
16700;DHT22;8466;52.286;21.124;2022-07-29T06:57:07;18.30;99.90
16700;DHT22;8466;52.286;21.124;2022-07-29T06:59:37;18.40;99.90
16700;DHT22;8466;52.286;21.124;2022-07-29T07:02:05;18.40;99.90
16700;DHT22;8466;52.286;21.124;2022-07-29T07:04:34;18.50;99.90
16700;DHT22;8466;52.286;21.124;2022-07-29T07:07:03;18.50;99.90
16700;DHT22;8466;52.286;21.124;2022-07-29T07:09:31;18.60;99.90
16700;DHT22;8466;52.286;21.124;2022-07-29T07:12:08;18.70;99.90
16700;DHT22;8466;52.286;21.124;2022-07-29T07:14:37;18.80;99.90
16700;DHT22;8466;52.286;21.124;2022-07-29T07:17:08;18.80;99.90
16700;DHT22;8466;52.286;21.124;2022-07-29T07:19:37;18.90;99.90
16700;DHT22;8466;52.286;21.124;2022-07-29T07:22:05;19.00;99.90
16700;DHT22;8466;52.286;21.124;2022-07-29T07:24:34;19.10;99.90
16700;DHT22;8466;52.286;21.124;2022-07-29T07:27:05;19.20;99.90
16700;DHT22;8466;52.286;21.124;2022-07-29T07:29:35;19.30;99.90
16700;DHT22;8466;52.286;21.124;2022-07-29T07:32:04;19.50;99.90
16700;DHT22;8466;52.286;21.124;2022-07-29T07:34:33;19.50;99.90
16700;DHT22;8466;52.286;21.124;2022-07-29T07:37:02;19.50;99.90
16700;DHT22;8466;52.286;21.124;2022-07-29T07:39:31;19.60;99.90
16700;DHT22;8466;52.286;21.124;2022-07-29T07:41:59;19.60;99.90
16700;DHT22;8466;52.286;21.124;2022-07-29T07:44:28;19.70;99.90
16700;DHT22;8466;52.286;21.124;2022-07-29T07:47:13;19.60;99.90
16700;DHT22;8466;52.286;21.124;2022-07-29T07:49:44;19.80;99.90
16700;DHT22;8466;52.286;21.124;2022-07-29T07:52:16;19.80;99.90
16700;DHT22;8466;52.286;21.124;2022-07-29T07:54:46;19.90;99.90
16700;DHT22;8466;52.286;21.124;2022-07-29T07:57:15;20.00;99.90
16700;DHT22;8466;52.286;21.124;2022-07-29T07:59:45;20.20;99.90
16700;DHT22;8466;52.286;21.124;2022-07-29T08:02:15;20.30;99.90
16700;DHT22;8466;52.286;21.124;2022-07-29T08:04:44;20.40;99.90
16700;DHT22;8466;52.286;21.124;2022-07-29T08:07:13;20.40;99.90
16700;DHT22;8466;52.286;21.124;2022-07-29T08:09:42;20.40;99.90
16700;DHT22;8466;52.286;21.124;2022-07-29T08:12:11;20.60;99.90
16700;DHT22;8466;52.286;21.124;2022-07-29T08:14:40;20.60;99.90
16700;DHT22;8466;52.286;21.124;2022-07-29T08:17:09;20.70;99.90
16700;DHT22;8466;52.286;21.124;2022-07-29T08:19:39;20.70;99.90
16700;DHT22;8466;52.286;21.124;2022-07-29T08:22:08;20.80;99.90
16700;DHT22;8466;52.286;21.124;2022-07-29T08:24:40;20.80;99.90
16700;DHT22;8466;52.286;21.124;2022-07-29T08:27:20;20.80;99.90
16700;DHT22;8466;52.286;21.124;2022-07-29T08:30:12;20.90;99.90
16700;DHT22;8466;52.286;21.124;2022-07-29T08:32:43;21.00;99.90
16700;DHT22;8466;52.286;21.124;2022-07-29T08:35:23;21.00;99.90
16700;DHT22;8466;52.286;21.124;2022-07-29T08:37:52;21.10;99.90
16700;DHT22;8466;52.286;21.124;2022-07-29T08:40:21;21.10;99.90
16700;DHT22;8466;52.286;21.124;2022-07-29T08:42:59;21.10;99.90
16700;DHT22;8466;52.286;21.124;2022-07-29T08:45:30;21.30;99.90
16700;DHT22;8466;52.286;21.124;2022-07-29T08:48:13;21.30;99.90
16700;DHT22;8466;52.286;21.124;2022-07-29T08:50:44;21.40;99.90
16700;DHT22;8466;52.286;21.124;2022-07-29T08:53:16;21.60;99.90
16700;DHT22;8466;52.286;21.124;2022-07-29T08:55:46;21.80;99.90
16700;DHT22;8466;52.286;21.124;2022-07-29T08:58:16;22.00;99.90
16700;DHT22;8466;52.286;21.124;2022-07-29T09:00:51;22.20;99.90
16700;DHT22;8466;52.286;21.124;2022-07-29T09:03:24;22.30;99.90
16700;DHT22;8466;52.286;21.124;2022-07-29T09:05:55;22.40;99.90
16700;DHT22;8466;52.286;21.124;2022-07-29T09:08:25;22.60;99.90
16700;DHT22;8466;52.286;21.124;2022-07-29T09:10:57;22.80;99.90
16700;DHT22;8466;52.286;21.124;2022-07-29T09:13:31;22.90;99.90
16700;DHT22;8466;52.286;21.124;2022-07-29T09:16:00;23.10;99.90
16700;DHT22;8466;52.286;21.124;2022-07-29T09:18:36;23.30;99.90
16700;DHT22;8466;52.286;21.124;2022-07-29T09:21:09;23.30;99.90
16700;DHT22;8466;52.286;21.124;2022-07-29T09:24:06;23.20;99.90
16700;DHT22;8466;52.286;21.124;2022-07-29T09:26:37;23.10;99.90
16700;DHT22;8466;52.286;21.124;2022-07-29T09:29:11;23.10;99.70
16700;DHT22;8466;52.286;21.124;2022-07-29T09:31:42;23.10;99.40
16700;DHT22;8466;52.286;21.124;2022-07-29T09:34:24;23.30;99.70
16700;DHT22;8466;52.286;21.124;2022-07-29T09:36:58;23.30;98.40
16700;DHT22;8466;52.286;21.124;2022-07-29T09:39:29;23.40;98.90
16700;DHT22;8466;52.286;21.124;2022-07-29T09:42:00;23.40;98.30
16700;DHT22;8466;52.286;21.124;2022-07-29T09:44:42;23.20;98.10
16700;DHT22;8466;52.286;21.124;2022-07-29T09:47:13;23.20;97.80
16700;DHT22;8466;52.286;21.124;2022-07-29T09:49:54;23.20;98.60
16700;DHT22;8466;52.286;21.124;2022-07-29T09:52:27;23.30;98.20
16700;DHT22;8466;52.286;21.124;2022-07-29T09:55:07;23.30;97.70
16700;DHT22;8466;52.286;21.124;2022-07-29T09:57:39;23.30;97.50
16700;DHT22;8466;52.286;21.124;2022-07-29T10:00:10;23.30;97.60
16700;DHT22;8466;52.286;21.124;2022-07-29T10:02:40;23.40;98.10
16700;DHT22;8466;52.286;21.124;2022-07-29T10:05:19;23.40;97.80
16700;DHT22;8466;52.286;21.124;2022-07-29T10:07:52;23.40;97.30
16700;DHT22;8466;52.286;21.124;2022-07-29T10:10:24;23.40;97.70
16700;DHT22;8466;52.286;21.124;2022-07-29T10:12:55;23.40;97.70
16700;DHT22;8466;52.286;21.124;2022-07-29T10:15:34;23.40;97.70
16700;DHT22;8466;52.286;21.124;2022-07-29T10:18:06;23.40;98.00
16700;DHT22;8466;52.286;21.124;2022-07-29T10:20:36;23.50;98.30
16700;DHT22;8466;52.286;21.124;2022-07-29T10:23:07;23.70;97.60
16700;DHT22;8466;52.286;21.124;2022-07-29T10:25:37;23.80;96.40
16700;DHT22;8466;52.286;21.124;2022-07-29T10:28:06;23.80;96.80
16700;DHT22;8466;52.286;21.124;2022-07-29T10:30:42;23.90;96.20
16700;DHT22;8466;52.286;21.124;2022-07-29T10:33:21;24.10;96.40
16700;DHT22;8466;52.286;21.124;2022-07-29T10:36:20;24.40;96.00
16700;DHT22;8466;52.286;21.124;2022-07-29T10:39:02;24.50;95.40
16700;DHT22;8466;52.286;21.124;2022-07-29T10:42:00;24.70;94.70
16700;DHT22;8466;52.286;21.124;2022-07-29T10:44:31;24.90;94.40
16700;DHT22;8466;52.286;21.124;2022-07-29T10:47:00;25.30;93.70
16700;DHT22;8466;52.286;21.124;2022-07-29T10:49:29;25.70;93.20
16700;DHT22;8466;52.286;21.124;2022-07-29T10:52:01;26.00;92.70
16700;DHT22;8466;52.286;21.124;2022-07-29T10:54:44;26.30;91.70
16700;DHT22;8466;52.286;21.124;2022-07-29T10:57:20;26.20;91.20
16700;DHT22;8466;52.286;21.124;2022-07-29T11:00:30;26.10;91.20
16700;DHT22;8466;52.286;21.124;2022-07-29T11:03:00;26.00;91.00
16700;DHT22;8466;52.286;21.124;2022-07-29T11:05:54;25.90;91.20
16700;DHT22;8466;52.286;21.124;2022-07-29T11:08:26;25.90;91.50
16700;DHT22;8466;52.286;21.124;2022-07-29T11:14:05;25.80;91.30
16700;DHT22;8466;52.286;21.124;2022-07-29T11:17:01;25.40;91.10
16700;DHT22;8466;52.286;21.124;2022-07-29T11:19:35;25.00;92.10
16700;DHT22;8466;52.286;21.124;2022-07-29T11:22:32;25.00;92.70
16700;DHT22;8466;52.286;21.124;2022-07-29T11:25:13;25.10;92.10
16700;DHT22;8466;52.286;21.124;2022-07-29T11:27:44;25.10;91.30
16700;DHT22;8466;52.286;21.124;2022-07-29T11:30:15;25.00;91.40
16700;DHT22;8466;52.286;21.124;2022-07-29T11:32:44;25.00;91.30
16700;DHT22;8466;52.286;21.124;2022-07-29T11:35:16;25.10;91.30
16700;DHT22;8466;52.286;21.124;2022-07-29T11:38:25;25.10;91.80
16700;DHT22;8466;52.286;21.124;2022-07-29T11:41:25;25.30;91.50
16700;DHT22;8466;52.286;21.124;2022-07-29T11:43:58;25.20;91.20
16700;DHT22;8466;52.286;21.124;2022-07-29T11:46:49;25.10;91.40
16700;DHT22;8466;52.286;21.124;2022-07-29T11:49:21;25.10;91.20
16700;DHT22;8466;52.286;21.124;2022-07-29T11:51:59;25.30;91.50
16700;DHT22;8466;52.286;21.124;2022-07-29T11:54:32;25.60;91.30
16700;DHT22;8466;52.286;21.124;2022-07-29T11:57:21;25.80;90.80
16700;DHT22;8466;52.286;21.124;2022-07-29T12:00:04;25.90;90.70
16700;DHT22;8466;52.286;21.124;2022-07-29T12:02:57;26.00;90.50
16700;DHT22;8466;52.286;21.124;2022-07-29T12:05:37;26.20;91.70
16700;DHT22;8466;52.286;21.124;2022-07-29T12:08:19;26.20;90.20
16700;DHT22;8466;52.286;21.124;2022-07-29T12:10:50;25.90;89.70
16700;DHT22;8466;52.286;21.124;2022-07-29T12:13:20;25.80;88.90
16700;DHT22;8466;52.286;21.124;2022-07-29T12:16:04;25.90;89.20
16700;DHT22;8466;52.286;21.124;2022-07-29T12:18:34;25.90;90.00
16700;DHT22;8466;52.286;21.124;2022-07-29T12:21:03;25.90;89.10
16700;DHT22;8466;52.286;21.124;2022-07-29T12:23:32;25.90;87.80
16700;DHT22;8466;52.286;21.124;2022-07-29T12:26:04;25.80;88.50
16700;DHT22;8466;52.286;21.124;2022-07-29T12:28:48;25.70;88.50
16700;DHT22;8466;52.286;21.124;2022-07-29T12:31:17;25.80;88.10
16700;DHT22;8466;52.286;21.124;2022-07-29T12:34:07;25.90;89.50
16700;DHT22;8466;52.286;21.124;2022-07-29T12:36:36;26.00;86.40
16700;DHT22;8466;52.286;21.124;2022-07-29T12:39:05;26.10;85.50
16700;DHT22;8466;52.286;21.124;2022-07-29T12:41:34;26.00;86.20
16700;DHT22;8466;52.286;21.124;2022-07-29T12:44:03;26.00;87.00
16700;DHT22;8466;52.286;21.124;2022-07-29T12:46:32;26.10;85.20
16700;DHT22;8466;52.286;21.124;2022-07-29T12:49:02;26.10;86.20
16700;DHT22;8466;52.286;21.124;2022-07-29T12:51:34;26.10;85.60
16700;DHT22;8466;52.286;21.124;2022-07-29T12:54:06;25.80;85.60
16700;DHT22;8466;52.286;21.124;2022-07-29T12:56:35;25.70;86.60
16700;DHT22;8466;52.286;21.124;2022-07-29T12:59:14;25.60;85.20
16700;DHT22;8466;52.286;21.124;2022-07-29T13:01:43;25.70;85.40
16700;DHT22;8466;52.286;21.124;2022-07-29T13:04:24;25.90;84.80
16700;DHT22;8466;52.286;21.124;2022-07-29T13:07:01;26.20;84.20
16700;DHT22;8466;52.286;21.124;2022-07-29T13:09:38;26.40;84.10
16700;DHT22;8466;52.286;21.124;2022-07-29T13:12:08;26.40;83.10
16700;DHT22;8466;52.286;21.124;2022-07-29T13:14:39;26.10;83.00
16700;DHT22;8466;52.286;21.124;2022-07-29T13:17:09;26.00;83.50
16700;DHT22;8466;52.286;21.124;2022-07-29T13:19:39;26.00;83.80
16700;DHT22;8466;52.286;21.124;2022-07-29T13:22:11;26.20;84.30
16700;DHT22;8466;52.286;21.124;2022-07-29T13:24:48;26.30;82.50
16700;DHT22;8466;52.286;21.124;2022-07-29T13:27:18;26.40;82.40
16700;DHT22;8466;52.286;21.124;2022-07-29T13:29:49;26.30;81.60
16700;DHT22;8466;52.286;21.124;2022-07-29T13:32:19;26.30;81.00
16700;DHT22;8466;52.286;21.124;2022-07-29T13:34:55;26.40;80.50
16700;DHT22;8466;52.286;21.124;2022-07-29T13:37:26;26.50;80.30
16700;DHT22;8466;52.286;21.124;2022-07-29T13:39:57;26.70;80.60
16700;DHT22;8466;52.286;21.124;2022-07-29T13:42:27;26.90;80.50
16700;DHT22;8466;52.286;21.124;2022-07-29T13:44:56;27.10;79.40
16700;DHT22;8466;52.286;21.124;2022-07-29T13:47:26;27.30;78.70
16700;DHT22;8466;52.286;21.124;2022-07-29T13:50:00;27.40;78.40
16700;DHT22;8466;52.286;21.124;2022-07-29T13:52:33;27.60;78.30
16700;DHT22;8466;52.286;21.124;2022-07-29T13:55:02;27.60;76.00
16700;DHT22;8466;52.286;21.124;2022-07-29T13:57:32;27.40;77.50
16700;DHT22;8466;52.286;21.124;2022-07-29T14:00:00;27.30;75.50
16700;DHT22;8466;52.286;21.124;2022-07-29T14:02:29;26.70;75.00
16700;DHT22;8466;52.286;21.124;2022-07-29T14:05:00;26.40;76.50
16700;DHT22;8466;52.286;21.124;2022-07-29T14:07:35;26.00;78.30
16700;DHT22;8466;52.286;21.124;2022-07-29T14:10:06;25.70;78.70
16700;DHT22;8466;52.286;21.124;2022-07-29T14:12:35;25.60;79.40
16700;DHT22;8466;52.286;21.124;2022-07-29T14:15:05;25.50;80.20
16700;DHT22;8466;52.286;21.124;2022-07-29T14:17:34;25.30;79.30
16700;DHT22;8466;52.286;21.124;2022-07-29T14:20:04;25.00;80.50
16700;DHT22;8466;52.286;21.124;2022-07-29T14:22:34;24.90;80.30
16700;DHT22;8466;52.286;21.124;2022-07-29T14:25:08;24.90;80.80
16700;DHT22;8466;52.286;21.124;2022-07-29T14:27:41;25.00;81.30
16700;DHT22;8466;52.286;21.124;2022-07-29T14:30:12;25.20;80.10
16700;DHT22;8466;52.286;21.124;2022-07-29T14:32:41;25.20;79.70
16700;DHT22;8466;52.286;21.124;2022-07-29T14:35:10;25.20;78.80
16700;DHT22;8466;52.286;21.124;2022-07-29T14:37:41;25.10;79.10
16700;DHT22;8466;52.286;21.124;2022-07-29T14:40:11;25.00;79.50
16700;DHT22;8466;52.286;21.124;2022-07-29T14:42:39;24.90;79.90
16700;DHT22;8466;52.286;21.124;2022-07-29T14:45:09;24.80;80.10
16700;DHT22;8466;52.286;21.124;2022-07-29T14:47:38;24.80;79.50
16700;DHT22;8466;52.286;21.124;2022-07-29T14:50:08;25.00;80.60
16700;DHT22;8466;52.286;21.124;2022-07-29T14:52:37;25.20;80.70
16700;DHT22;8466;52.286;21.124;2022-07-29T14:55:08;25.40;80.00
16700;DHT22;8466;52.286;21.124;2022-07-29T14:57:46;25.60;78.90
16700;DHT22;8466;52.286;21.124;2022-07-29T15:00:16;25.80;79.30
16700;DHT22;8466;52.286;21.124;2022-07-29T15:02:45;26.00;79.40
16700;DHT22;8466;52.286;21.124;2022-07-29T15:05:28;26.10;79.20
16700;DHT22;8466;52.286;21.124;2022-07-29T15:07:57;26.20;78.40
16700;DHT22;8466;52.286;21.124;2022-07-29T15:10:27;26.30;77.30
16700;DHT22;8466;52.286;21.124;2022-07-29T15:12:56;26.40;77.90
16700;DHT22;8466;52.286;21.124;2022-07-29T15:15:25;26.60;77.60
16700;DHT22;8466;52.286;21.124;2022-07-29T15:17:54;26.90;76.30
16700;DHT22;8466;52.286;21.124;2022-07-29T15:20:23;27.10;76.00
16700;DHT22;8466;52.286;21.124;2022-07-29T15:22:54;27.30;73.60
16700;DHT22;8466;52.286;21.124;2022-07-29T15:25:23;27.30;73.70
16700;DHT22;8466;52.286;21.124;2022-07-29T15:27:55;27.30;74.00
16700;DHT22;8466;52.286;21.124;2022-07-29T15:30:29;27.40;73.30
16700;DHT22;8466;52.286;21.124;2022-07-29T15:33:01;27.30;73.40
16700;DHT22;8466;52.286;21.124;2022-07-29T15:35:30;27.50;72.90
16700;DHT22;8466;52.286;21.124;2022-07-29T15:38:06;27.60;72.80
16700;DHT22;8466;52.286;21.124;2022-07-29T15:40:37;27.60;72.00
16700;DHT22;8466;52.286;21.124;2022-07-29T15:43:07;27.40;72.40
16700;DHT22;8466;52.286;21.124;2022-07-29T15:45:36;26.90;73.20
16700;DHT22;8466;52.286;21.124;2022-07-29T15:48:07;26.20;74.40
16700;DHT22;8466;52.286;21.124;2022-07-29T15:50:40;25.70;76.00
16700;DHT22;8466;52.286;21.124;2022-07-29T15:53:13;25.20;76.80
16700;DHT22;8466;52.286;21.124;2022-07-29T15:55:43;24.90;77.40
16700;DHT22;8466;52.286;21.124;2022-07-29T15:58:14;24.60;78.40
16700;DHT22;8466;52.286;21.124;2022-07-29T16:00:43;24.40;79.50
16700;DHT22;8466;52.286;21.124;2022-07-29T16:03:12;24.30;79.50
16700;DHT22;8466;52.286;21.124;2022-07-29T16:05:41;24.30;79.40
16700;DHT22;8466;52.286;21.124;2022-07-29T16:08:10;24.10;79.60
16700;DHT22;8466;52.286;21.124;2022-07-29T16:10:39;24.00;80.20